Mae Sariang, Thailand
Current Conditions -  °F | °C
As of 2:30 PM on Wednesday 26 Nov 2014 (Local Time) from VTCC Reporting Station
Few Clouds Few Clouds  
Wind Chill: 30°   Ceiling: Unl
Heat Index: 30°   Visibility: 6mi
Dew Point: 16°   Wind: 5mph
Humidity: 43%   Direction: 140°SE
Pressure: 29.83"   Gusts: NA
Location:  18.15°N, 97.93°E
Report Text: VTCC 260730Z 14004KT 9999 FEW035 30/16 Q1010 A2983 NOSIG
Loading
Personal Weather Stations






























Interactive Weather Map New forecast layout! Learn more

10-Day Weather Forecast

Advertisements
Track Severe Weather on mobile